Terminal Aerodrome Forecast
Issued by NWS

Current Version | Previous Version | Text Only | Print | Product List | Glossary On
Versions: 1 2 3 4 5 6 7 8 9 10 11 12 13
000
FTUS45 KVEF 252320
TAFHND
TAF
KHND 252320Z 2600/2624 35019G29KT P6SM FEW150 SCT250
     FM260200 01011KT P6SM SCT250
     FM260500 25007KT P6SM SCT250
     FM261000 VRB05KT P6SM SCT250
     FM262000 24012G18KT P6SM BKN250=

USA.gov is the U.S. government's official web portal to all federal, state and local government web resources and services.